sensor_id;sensor_type;location;lat;lon;timestamp;pressure;altitude;pressure_sealevel;temperature;humidity
64521;BME280;50896;46.714;17.322;2022-10-31T00:00:31;101117.28;;;10.38;100.00
64521;BME280;50896;46.714;17.322;2022-10-31T00:02:57;101107.19;;;10.32;100.00
64521;BME280;50896;46.714;17.322;2022-10-31T00:05:24;101108.59;;;10.26;100.00
64521;BME280;50896;46.714;17.322;2022-10-31T00:07:52;101113.34;;;10.32;100.00
64521;BME280;50896;46.714;17.322;2022-10-31T00:10:19;101109.72;;;10.23;100.00
64521;BME280;50896;46.714;17.322;2022-10-31T00:12:46;101116.59;;;10.16;100.00
64521;BME280;50896;46.714;17.322;2022-10-31T00:15:13;101119.66;;;10.12;100.00
64521;BME280;50896;46.714;17.322;2022-10-31T00:17:39;101114.09;;;10.15;100.00
64521;BME280;50896;46.714;17.322;2022-10-31T00:20:06;101106.38;;;10.12;100.00
64521;BME280;50896;46.714;17.322;2022-10-31T00:22:33;101111.13;;;10.18;100.00
64521;BME280;50896;46.714;17.322;2022-10-31T00:25:00;101101.91;;;10.12;100.00
64521;BME280;50896;46.714;17.322;2022-10-31T00:27:26;101111.97;;;10.18;100.00
64521;BME280;50896;46.714;17.322;2022-10-31T00:29:54;101113.22;;;10.14;100.00
64521;BME280;50896;46.714;17.322;2022-10-31T00:32:20;101107.38;;;10.11;100.00
64521;BME280;50896;46.714;17.322;2022-10-31T00:34:47;101113.66;;;10.09;100.00
64521;BME280;50896;46.714;17.322;2022-10-31T00:37:14;101104.16;;;10.07;100.00
64521;BME280;50896;46.714;17.322;2022-10-31T00:39:42;101108.22;;;10.01;100.00
64521;BME280;50896;46.714;17.322;2022-10-31T00:42:11;101104.16;;;9.97;100.00
64521;BME280;50896;46.714;17.322;2022-10-31T00:44:41;101111.44;;;10.05;100.00
64521;BME280;50896;46.714;17.322;2022-10-31T00:47:08;101108.91;;;10.13;100.00
64521;BME280;50896;46.714;17.322;2022-10-31T00:49:35;101107.53;;;10.09;100.00
64521;BME280;50896;46.714;17.322;2022-10-31T00:52:02;101092.25;;;10.11;100.00
64521;BME280;50896;46.714;17.322;2022-10-31T00:54:29;101093.09;;;10.21;100.00
64521;BME280;50896;46.714;17.322;2022-10-31T00:56:57;101103.59;;;10.23;100.00
64521;BME280;50896;46.714;17.322;2022-10-31T00:59:24;101104.00;;;10.18;100.00
64521;BME280;50896;46.714;17.322;2022-10-31T01:01:51;101100.38;;;10.19;100.00
64521;BME280;50896;46.714;17.322;2022-10-31T01:04:18;101097.72;;;10.09;100.00
64521;BME280;50896;46.714;17.322;2022-10-31T01:06:44;101104.56;;;10.12;100.00
64521;BME280;50896;46.714;17.322;2022-10-31T01:09:11;101099.94;;;10.14;100.00
64521;BME280;50896;46.714;17.322;2022-10-31T01:11:38;101098.41;;;10.12;100.00
64521;BME280;50896;46.714;17.322;2022-10-31T01:14:08;101102.59;;;10.14;100.00
64521;BME280;50896;46.714;17.322;2022-10-31T01:16:35;101088.63;;;10.12;100.00
64521;BME280;50896;46.714;17.322;2022-10-31T01:19:02;101093.22;;;10.10;100.00
64521;BME280;50896;46.714;17.322;2022-10-31T01:21:29;101095.75;;;10.12;100.00
64521;BME280;50896;46.714;17.322;2022-10-31T01:23:59;101096.75;;;10.11;100.00
64521;BME280;50896;46.714;17.322;2022-10-31T01:26:30;101090.84;;;10.17;100.00
64521;BME280;50896;46.714;17.322;2022-10-31T01:29:00;101082.06;;;10.16;100.00
64521;BME280;50896;46.714;17.322;2022-10-31T01:31:29;101093.22;;;10.10;100.00
64521;BME280;50896;46.714;17.322;2022-10-31T01:33:58;101090.16;;;10.15;100.00
64521;BME280;50896;46.714;17.322;2022-10-31T01:38:53;101083.84;;;10.16;100.00
64521;BME280;50896;46.714;17.322;2022-10-31T01:41:23;101082.22;;;10.05;100.00
64521;BME280;50896;46.714;17.322;2022-10-31T01:43:51;101082.47;;;10.02;100.00
64521;BME280;50896;46.714;17.322;2022-10-31T01:49:02;101086.13;;;10.01;100.00
64521;BME280;50896;46.714;17.322;2022-10-31T01:51:34;101088.78;;;10.01;100.00
64521;BME280;50896;46.714;17.322;2022-10-31T01:54:06;101085.56;;;10.07;100.00
64521;BME280;50896;46.714;17.322;2022-10-31T01:56:37;101082.91;;;10.07;100.00
64521;BME280;50896;46.714;17.322;2022-10-31T01:59:08;101082.06;;;10.06;100.00
64521;BME280;50896;46.714;17.322;2022-10-31T02:01:37;101080.97;;;9.99;100.00
64521;BME280;50896;46.714;17.322;2022-10-31T02:04:04;101076.19;;;10.03;100.00
64521;BME280;50896;46.714;17.322;2022-10-31T02:06:46;101072.28;;;10.07;100.00
64521;BME280;50896;46.714;17.322;2022-10-31T02:09:16;101077.59;;;10.07;100.00
64521;BME280;50896;46.714;17.322;2022-10-31T02:11:44;101074.78;;;10.08;100.00
64521;BME280;50896;46.714;17.322;2022-10-31T02:14:11;101072.28;;;10.07;100.00
64521;BME280;50896;46.714;17.322;2022-10-31T02:16:38;101076.19;;;10.03;100.00
64521;BME280;50896;46.714;17.322;2022-10-31T02:19:08;101080.53;;;10.14;100.00
64521;BME280;50896;46.714;17.322;2022-10-31T02:21:52;101072.41;;;10.15;100.00
64521;BME280;50896;46.714;17.322;2022-10-31T02:27:28;101080.41;;;9.96;100.00
64521;BME280;50896;46.714;17.322;2022-10-31T02:30:06;101075.81;;;9.98;100.00
64521;BME280;50896;46.714;17.322;2022-10-31T02:32:50;101074.66;;;10.00;100.00
64521;BME280;50896;46.714;17.322;2022-10-31T02:35:54;101073.00;;;9.99;100.00
64521;BME280;50896;46.714;17.322;2022-10-31T02:38:36;101077.47;;;9.89;100.00
64521;BME280;50896;46.714;17.322;2022-10-31T02:41:26;101072.16;;;9.89;100.00
64521;BME280;50896;46.714;17.322;2022-10-31T02:44:09;101078.59;;;9.86;100.00
64521;BME280;50896;46.714;17.322;2022-10-31T02:47:11;101071.34;;;9.88;100.00
64521;BME280;50896;46.714;17.322;2022-10-31T02:52:21;101084.44;;;10.00;100.00
64521;BME280;50896;46.714;17.322;2022-10-31T02:54:50;101077.16;;;10.02;100.00
64521;BME280;50896;46.714;17.322;2022-10-31T02:57:26;101076.50;;;10.00;100.00
64521;BME280;50896;46.714;17.322;2022-10-31T02:59:57;101081.38;;;10.04;100.00
64521;BME280;50896;46.714;17.322;2022-10-31T03:02:46;101079.56;;;10.05;100.00
64521;BME280;50896;46.714;17.322;2022-10-31T03:15:56;101076.34;;;10.01;100.00
64521;BME280;50896;46.714;17.322;2022-10-31T03:21:27;101076.63;;;9.98;100.00
64521;BME280;50896;46.714;17.322;2022-10-31T03:23:59;101079.97;;;10.00;100.00
64521;BME280;50896;46.714;17.322;2022-10-31T03:26:27;101077.91;;;9.94;100.00
64521;BME280;50896;46.714;17.322;2022-10-31T03:29:02;101080.25;;;9.97;100.00
64521;BME280;50896;46.714;17.322;2022-10-31T03:31:35;101083.19;;;10.04;100.00
64521;BME280;50896;46.714;17.322;2022-10-31T03:34:06;101080.53;;;10.04;100.00
64521;BME280;50896;46.714;17.322;2022-10-31T03:36:35;101087.38;;;10.06;100.00
64521;BME280;50896;46.714;17.322;2022-10-31T03:39:06;101084.00;;;10.14;100.00
64521;BME280;50896;46.714;17.322;2022-10-31T03:41:41;101088.50;;;10.14;100.00
64521;BME280;50896;46.714;17.322;2022-10-31T03:44:16;101086.09;;;10.20;100.00
64521;BME280;50896;46.714;17.322;2022-10-31T03:46:48;101082.47;;;10.21;100.00
64521;BME280;50896;46.714;17.322;2022-10-31T03:49:15;101082.19;;;10.15;100.00
64521;BME280;50896;46.714;17.322;2022-10-31T03:54:19;101086.25;;;10.19;100.00
64521;BME280;50896;46.714;17.322;2022-10-31T03:56:58;101081.94;;;10.08;100.00
64521;BME280;50896;46.714;17.322;2022-10-31T03:59:33;101083.34;;;10.02;100.00
64521;BME280;50896;46.714;17.322;2022-10-31T04:02:05;101086.13;;;10.01;100.00
64521;BME280;50896;46.714;17.322;2022-10-31T04:04:34;101083.03;;;10.05;100.00
64521;BME280;50896;46.714;17.322;2022-10-31T04:07:04;101084.31;;;10.01;100.00
64521;BME280;50896;46.714;17.322;2022-10-31T04:09:36;101085.59;;;9.87;100.00
64521;BME280;50896;46.714;17.322;2022-10-31T04:12:06;101090.59;;;9.90;100.00
64521;BME280;50896;46.714;17.322;2022-10-31T04:14:54;101097.31;;;9.85;100.00
64521;BME280;50896;46.714;17.322;2022-10-31T04:17:23;101087.94;;;9.90;100.00
64521;BME280;50896;46.714;17.322;2022-10-31T04:19:52;101091.88;;;9.86;100.00
64521;BME280;50896;46.714;17.322;2022-10-31T04:22:19;101092.00;;;9.85;100.00
64521;BME280;50896;46.714;17.322;2022-10-31T04:24:45;101100.13;;;9.83;100.00
64521;BME280;50896;46.714;17.322;2022-10-31T04:27:14;101092.28;;;9.91;100.00
64521;BME280;50896;46.714;17.322;2022-10-31T04:29:41;101091.75;;;9.88;100.00
64521;BME280;50896;46.714;17.322;2022-10-31T04:32:14;101090.59;;;9.90;100.00
64521;BME280;50896;46.714;17.322;2022-10-31T04:34:40;101088.66;;;10.02;100.00
64521;BME280;50896;46.714;17.322;2022-10-31T04:37:07;101093.81;;;10.04;100.00
64521;BME280;50896;46.714;17.322;2022-10-31T04:39:34;101092.13;;;10.03;100.00
64521;BME280;50896;46.714;17.322;2022-10-31T04:42:19;101088.09;;;9.99;100.00
64521;BME280;50896;46.714;17.322;2022-10-31T04:44:46;101102.38;;;9.98;100.00
64521;BME280;50896;46.714;17.322;2022-10-31T04:47:13;101095.38;;;9.97;100.00
64521;BME280;50896;46.714;17.322;2022-10-31T04:49:41;101095.38;;;9.97;100.00
64521;BME280;50896;46.714;17.322;2022-10-31T04:52:10;101099.41;;;10.01;100.00
64521;BME280;50896;46.714;17.322;2022-10-31T04:54:37;101100.09;;;10.03;100.00
64521;BME280;50896;46.714;17.322;2022-10-31T04:57:06;101102.78;;;9.93;100.00
64521;BME280;50896;46.714;17.322;2022-10-31T04:59:33;101099.56;;;9.99;100.00
64521;BME280;50896;46.714;17.322;2022-10-31T05:02:00;101102.38;;;9.98;100.00
64521;BME280;50896;46.714;17.322;2022-10-31T05:04:41;101104.03;;;9.99;100.00
64521;BME280;50896;46.714;17.322;2022-10-31T05:07:08;101107.69;;;9.98;100.00
64521;BME280;50896;46.714;17.322;2022-10-31T05:09:35;101099.00;;;9.96;100.00
64521;BME280;50896;46.714;17.322;2022-10-31T05:12:02;101100.69;;;9.97;100.00
64521;BME280;50896;46.714;17.322;2022-10-31T05:14:55;101097.06;;;9.98;100.00
64521;BME280;50896;46.714;17.322;2022-10-31T05:17:40;101104.75;;;10.01;100.00
64521;BME280;50896;46.714;17.322;2022-10-31T05:20:28;101107.69;;;9.98;100.00
64521;BME280;50896;46.714;17.322;2022-10-31T05:23:11;101114.34;;;10.12;100.00
64521;BME280;50896;46.714;17.322;2022-10-31T05:25:40;101103.88;;;10.10;100.00
64521;BME280;50896;46.714;17.322;2022-10-31T05:28:07;101105.28;;;10.04;100.00
64521;BME280;50896;46.714;17.322;2022-10-31T05:30:34;101105.72;;;10.00;100.00
64521;BME280;50896;46.714;17.322;2022-10-31T05:33:03;101100.09;;;10.03;100.00
64521;BME280;50896;46.714;17.322;2022-10-31T05:35:55;101108.78;;;10.05;100.00
64521;BME280;50896;46.714;17.322;2022-10-31T05:38:28;101104.00;;;10.08;100.00
64521;BME280;50896;46.714;17.322;2022-10-31T05:40:58;101108.06;;;10.03;100.00
64521;BME280;50896;46.714;17.322;2022-10-31T05:43:29;101110.34;;;9.98;100.00
64521;BME280;50896;46.714;17.322;2022-10-31T05:45:56;101112.13;;;9.97;100.00
64521;BME280;50896;46.714;17.322;2022-10-31T05:48:46;101109.34;;;9.99;100.00
64521;BME280;50896;46.714;17.322;2022-10-31T05:51:31;101105.13;;;10.06;100.00
64521;BME280;50896;46.714;17.322;2022-10-31T05:53:58;101113.09;;;10.06;100.00
64521;BME280;50896;46.714;17.322;2022-10-31T05:56:26;101111.84;;;10.10;100.00
64521;BME280;50896;46.714;17.322;2022-10-31T05:58:53;101120.53;;;10.02;100.00
64521;BME280;50896;46.714;17.322;2022-10-31T06:01:20;101125.25;;;10.08;100.00
64521;BME280;50896;46.714;17.322;2022-10-31T06:03:47;101123.03;;;10.04;100.00
64521;BME280;50896;46.714;17.322;2022-10-31T06:06:15;101117.72;;;10.04;100.00
64521;BME280;50896;46.714;17.322;2022-10-31T06:08:42;101131.44;;;9.99;100.00
64521;BME280;50896;46.714;17.322;2022-10-31T06:11:14;101129.91;;;9.97;100.00
64521;BME280;50896;46.714;17.322;2022-10-31T06:13:59;101140.53;;;9.97;100.00
64521;BME280;50896;46.714;17.322;2022-10-31T06:16:54;101132.00;;;9.93;100.00
64521;BME280;50896;46.714;17.322;2022-10-31T06:19:39;101147.53;;;9.98;100.00
64521;BME280;50896;46.714;17.322;2022-10-31T06:22:08;101148.91;;;10.02;100.00
64521;BME280;50896;46.714;17.322;2022-10-31T06:24:34;101148.22;;;10.00;100.00
64521;BME280;50896;46.714;17.322;2022-10-31T06:27:17;101160.53;;;10.01;100.00
64521;BME280;50896;46.714;17.322;2022-10-31T06:29:43;101162.19;;;10.02;100.00
64521;BME280;50896;46.714;17.322;2022-10-31T06:32:21;101157.44;;;9.96;100.00
64521;BME280;50896;46.714;17.322;2022-10-31T06:34:47;101166.66;;;9.91;100.00
64521;BME280;50896;46.714;17.322;2022-10-31T06:37:15;101164.56;;;9.85;100.00
64521;BME280;50896;46.714;17.322;2022-10-31T06:39:45;101163.88;;;9.93;100.00
64521;BME280;50896;46.714;17.322;2022-10-31T06:42:15;101170.72;;;9.96;100.00
64521;BME280;50896;46.714;17.322;2022-10-31T06:44:42;101171.44;;;9.98;100.00
64521;BME280;50896;46.714;17.322;2022-10-31T06:47:28;101171.44;;;9.98;100.00
64521;BME280;50896;46.714;17.322;2022-10-31T06:50:05;101179.25;;;9.99;100.00
64521;BME280;50896;46.714;17.322;2022-10-31T06:52:32;101183.19;;;10.05;100.00
64521;BME280;50896;46.714;17.322;2022-10-31T06:54:59;101179.50;;;10.06;100.00
64521;BME280;50896;46.714;17.322;2022-10-31T06:57:26;101179.25;;;10.09;100.00
64521;BME280;50896;46.714;17.322;2022-10-31T06:59:54;101183.03;;;10.06;100.00
64521;BME280;50896;46.714;17.322;2022-10-31T07:02:37;101186.94;;;10.02;100.00
64521;BME280;50896;46.714;17.322;2022-10-31T07:05:05;101188.75;;;10.02;100.00
64521;BME280;50896;46.714;17.322;2022-10-31T07:07:32;101190.13;;;10.06;100.00
64521;BME280;50896;46.714;17.322;2022-10-31T07:09:58;101196.72;;;10.12;100.00
64521;BME280;50896;46.714;17.322;2022-10-31T07:12:44;101200.91;;;10.14;100.00
64521;BME280;50896;46.714;17.322;2022-10-31T07:15:11;101201.47;;;10.08;100.00
64521;BME280;50896;46.714;17.322;2022-10-31T07:17:38;101200.78;;;10.06;100.00
64521;BME280;50896;46.714;17.322;2022-10-31T07:20:07;101202.44;;;9.97;100.00
64521;BME280;50896;46.714;17.322;2022-10-31T07:22:35;101202.31;;;9.99;100.00
64521;BME280;50896;46.714;17.322;2022-10-31T07:25:05;101202.59;;;10.05;100.00
64521;BME280;50896;46.714;17.322;2022-10-31T07:27:52;101195.75;;;10.03;100.00
64521;BME280;50896;46.714;17.322;2022-10-31T07:30:19;101204.56;;;10.03;100.00
64521;BME280;50896;46.714;17.322;2022-10-31T07:32:50;101202.16;;;10.00;100.00
64521;BME280;50896;46.714;17.322;2022-10-31T07:35:21;101203.56;;;9.95;100.00
64521;BME280;50896;46.714;17.322;2022-10-31T07:37:57;101201.06;;;10.03;100.00
64521;BME280;50896;46.714;17.322;2022-10-31T07:40:32;101202.03;;;10.12;100.00
64521;BME280;50896;46.714;17.322;2022-10-31T07:42:59;101201.06;;;10.13;100.00
64521;BME280;50896;46.714;17.322;2022-10-31T07:45:52;101201.06;;;10.13;100.00
64521;BME280;50896;46.714;17.322;2022-10-31T07:48:39;101200.50;;;10.09;100.00
64521;BME280;50896;46.714;17.322;2022-10-31T07:51:29;101202.06;;;10.21;100.00
64521;BME280;50896;46.714;17.322;2022-10-31T07:54:25;101203.84;;;10.11;100.00
64521;BME280;50896;46.714;17.322;2022-10-31T07:56:53;101194.63;;;10.15;100.00
64521;BME280;50896;46.714;17.322;2022-10-31T07:59:19;101203.56;;;10.24;100.00
64521;BME280;50896;46.714;17.322;2022-10-31T08:01:47;101201.63;;;10.26;100.00
64521;BME280;50896;46.714;17.322;2022-10-31T08:04:40;101201.03;;;10.32;100.00
64521;BME280;50896;46.714;17.322;2022-10-31T08:07:29;101206.94;;;10.26;100.00
64521;BME280;50896;46.714;17.322;2022-10-31T08:10:05;101204.97;;;10.28;100.00
64521;BME280;50896;46.714;17.322;2022-10-31T08:12:33;101207.63;;;10.28;100.00
64521;BME280;50896;46.714;17.322;2022-10-31T08:15:00;101209.44;;;10.27;100.00
64521;BME280;50896;46.714;17.322;2022-10-31T08:17:28;101207.91;;;10.25;100.00
64521;BME280;50896;46.714;17.322;2022-10-31T08:19:58;101211.13;;;10.29;100.00
64521;BME280;50896;46.714;17.322;2022-10-31T08:22:34;101204.72;;;10.31;100.00
64521;BME280;50896;46.714;17.322;2022-10-31T08:25:06;101198.84;;;10.37;100.00
64521;BME280;50896;46.714;17.322;2022-10-31T08:27:35;101203.19;;;10.38;100.00
64521;BME280;50896;46.714;17.322;2022-10-31T08:30:01;101198.69;;;10.39;100.00
64521;BME280;50896;46.714;17.322;2022-10-31T08:32:30;101203.72;;;10.42;100.00
64521;BME280;50896;46.714;17.322;2022-10-31T08:35:23;101195.75;;;10.42;100.00
64521;BME280;50896;46.714;17.322;2022-10-31T08:38:25;101201.34;;;10.39;100.00
64521;BME280;50896;46.714;17.322;2022-10-31T08:40:51;101208.66;;;10.37;100.00
64521;BME280;50896;46.714;17.322;2022-10-31T08:43:19;101208.34;;;10.40;100.00
64521;BME280;50896;46.714;17.322;2022-10-31T08:45:48;101203.34;;;10.37;100.00
64521;BME280;50896;46.714;17.322;2022-10-31T08:48:22;101208.22;;;10.41;100.00
64521;BME280;50896;46.714;17.322;2022-10-31T08:50:49;101200.66;;;10.47;100.00
64521;BME280;50896;46.714;17.322;2022-10-31T08:53:17;101199.81;;;10.46;100.00
64521;BME280;50896;46.714;17.322;2022-10-31T08:55:50;101199.50;;;10.49;100.00
64521;BME280;50896;46.714;17.322;2022-10-31T08:58:24;101197.56;;;10.51;100.00
64521;BME280;50896;46.714;17.322;2022-10-31T09:00:59;101201.06;;;10.42;100.00
64521;BME280;50896;46.714;17.322;2022-10-31T09:03:29;101204.97;;;10.38;100.00
64521;BME280;50896;46.714;17.322;2022-10-31T09:06:00;101201.34;;;10.39;100.00
64521;BME280;50896;46.714;17.322;2022-10-31T09:08:29;101201.66;;;10.36;100.00
64521;BME280;50896;46.714;17.322;2022-10-31T09:10:57;101199.66;;;10.38;100.00
64521;BME280;50896;46.714;17.322;2022-10-31T09:13:44;101190.25;;;10.34;100.00
64521;BME280;50896;46.714;17.322;2022-10-31T09:16:31;101198.38;;;10.32;100.00
64521;BME280;50896;46.714;17.322;2022-10-31T09:18:57;101192.81;;;10.35;100.00
64521;BME280;50896;46.714;17.322;2022-10-31T09:21:24;101202.75;;;10.43;100.00
64521;BME280;50896;46.714;17.322;2022-10-31T09:23:52;101202.47;;;10.46;100.00
64521;BME280;50896;46.714;17.322;2022-10-31T09:26:20;101200.78;;;10.45;100.00
64521;BME280;50896;46.714;17.322;2022-10-31T09:29:07;101206.81;;;10.47;100.00
64521;BME280;50896;46.714;17.322;2022-10-31T09:31:36;101209.75;;;10.54;100.00
64521;BME280;50896;46.714;17.322;2022-10-31T09:34:24;101208.63;;;10.56;100.00
64521;BME280;50896;46.714;17.322;2022-10-31T09:37:13;101204.97;;;10.57;100.00
64521;BME280;50896;46.714;17.322;2022-10-31T09:39:39;101202.44;;;10.56;100.00
64521;BME280;50896;46.714;17.322;2022-10-31T09:50:58;101214.75;;;10.67;100.00
64521;BME280;50896;46.714;17.322;2022-10-31T09:54:00;101209.28;;;10.68;100.00
64521;BME280;50896;46.714;17.322;2022-10-31T09:56:31;101208.16;;;10.71;100.00
64521;BME280;50896;46.714;17.322;2022-10-31T09:59:00;101214.75;;;10.67;100.00
64521;BME280;50896;46.714;17.322;2022-10-31T10:07:02;101210.94;;;10.79;100.00
64521;BME280;50896;46.714;17.322;2022-10-31T10:09:45;101208.41;;;10.87;100.00
64521;BME280;50896;46.714;17.322;2022-10-31T10:18:31;101213.72;;;10.87;100.00
64521;BME280;50896;46.714;17.322;2022-10-31T10:21:10;101205.75;;;10.87;100.00
64521;BME280;50896;46.714;17.322;2022-10-31T10:23:59;101204.50;;;10.82;100.00
64521;BME280;50896;46.714;17.322;2022-10-31T10:26:36;101196.22;;;10.85;100.00
64521;BME280;50896;46.714;17.322;2022-10-31T10:31:58;101189.78;;;10.87;100.00
64521;BME280;50896;46.714;17.322;2022-10-31T10:34:31;101192.44;;;10.87;100.00
64521;BME280;50896;46.714;17.322;2022-10-31T10:37:32;101193.72;;;10.83;100.00
64521;BME280;50896;46.714;17.322;2022-10-31T10:42:34;101194.69;;;10.82;100.00
64521;BME280;50896;46.714;17.322;2022-10-31T10:45:20;101188.91;;;10.87;100.00
64521;BME280;50896;46.714;17.322;2022-10-31T10:48:41;101180.22;;;10.94;100.00
64521;BME280;50896;46.714;17.322;2022-10-31T10:51:19;101173.53;;;10.90;100.00
64521;BME280;50896;46.714;17.322;2022-10-31T10:56:49;101186.66;;;10.92;100.00
64521;BME280;50896;46.714;17.322;2022-10-31T10:59:19;101174.91;;;10.94;100.00
64521;BME280;50896;46.714;17.322;2022-10-31T11:01:49;101178.25;;;10.97;100.00
64521;BME280;50896;46.714;17.322;2022-10-31T11:04:33;101181.19;;;10.93;100.00
64521;BME280;50896;46.714;17.322;2022-10-31T11:09:28;101172.69;;;10.90;100.00
64521;BME280;50896;46.714;17.322;2022-10-31T11:11:55;101166.50;;;10.89;100.00
64521;BME280;50896;46.714;17.322;2022-10-31T11:14:23;101173.22;;;10.93;100.00
64521;BME280;50896;46.714;17.322;2022-10-31T11:17:26;101174.50;;;10.89;100.00
64521;BME280;50896;46.714;17.322;2022-10-31T11:20:04;101178.53;;;10.93;100.00
64521;BME280;50896;46.714;17.322;2022-10-31T11:22:32;101178.94;;;10.99;100.00
64521;BME280;50896;46.714;17.322;2022-10-31T11:24:58;101170.22;;;11.06;100.00
64521;BME280;50896;46.714;17.322;2022-10-31T11:27:25;101168.78;;;11.12;100.00
64521;BME280;50896;46.714;17.322;2022-10-31T11:29:52;101163.78;;;11.09;100.00
64521;BME280;50896;46.714;17.322;2022-10-31T11:32:27;101172.06;;;11.06;100.00
64521;BME280;50896;46.714;17.322;2022-10-31T11:34:57;101171.78;;;10.99;100.00
64521;BME280;50896;46.714;17.322;2022-10-31T11:37:45;101168.72;;;11.04;100.00
64521;BME280;50896;46.714;17.322;2022-10-31T11:40:20;101157.94;;;11.05;100.00
64521;BME280;50896;46.714;17.322;2022-10-31T11:42:49;101161.56;;;11.04;100.00
64521;BME280;50896;46.714;17.322;2022-10-31T11:47:51;101157.94;;;11.05;100.00
64521;BME280;50896;46.714;17.322;2022-10-31T11:50:28;101151.47;;;11.08;100.00
64521;BME280;50896;46.714;17.322;2022-10-31T11:52:55;101150.63;;;11.07;100.00
64521;BME280;50896;46.714;17.322;2022-10-31T11:55:39;101146.53;;;11.13;100.00
64521;BME280;50896;46.714;17.322;2022-10-31T11:58:23;101144.41;;;11.17;100.00
64521;BME280;50896;46.714;17.322;2022-10-31T12:00:53;101151.22;;;11.29;100.00
64521;BME280;50896;46.714;17.322;2022-10-31T12:06:12;101142.28;;;11.20;100.00
64521;BME280;50896;46.714;17.322;2022-10-31T12:08:41;101139.09;;;11.17;100.00
64521;BME280;50896;46.714;17.322;2022-10-31T12:16:55;101136.91;;;11.30;100.00
64521;BME280;50896;46.714;17.322;2022-10-31T12:25:38;101127.31;;;11.19;100.00
64521;BME280;50896;46.714;17.322;2022-10-31T12:36:29;101123.81;;;11.19;100.00
64521;BME280;50896;46.714;17.322;2022-10-31T12:50:54;101117.97;;;11.15;100.00
64521;BME280;50896;46.714;17.322;2022-10-31T12:58:26;101114.75;;;11.11;100.00
64521;BME280;50896;46.714;17.322;2022-10-31T13:01:10;101119.59;;;11.16;100.00
64521;BME280;50896;46.714;17.322;2022-10-31T13:06:48;101118.47;;;11.19;100.00
64521;BME280;50896;46.714;17.322;2022-10-31T13:09:19;101121.13;;;11.19;100.00
64521;BME280;50896;46.714;17.322;2022-10-31T13:11:56;101105.63;;;11.14;100.00
64521;BME280;50896;46.714;17.322;2022-10-31T13:14:55;101114.28;;;11.16;100.00
64521;BME280;50896;46.714;17.322;2022-10-31T13:17:45;101112.63;;;11.15;100.00
64521;BME280;50896;46.714;17.322;2022-10-31T13:20:27;101117.41;;;11.11;100.00
64521;BME280;50896;46.714;17.322;2022-10-31T13:23:08;101106.59;;;11.13;100.00
64521;BME280;50896;46.714;17.322;2022-10-31T13:26:00;101107.00;;;11.18;100.00
64521;BME280;50896;46.714;17.322;2022-10-31T13:28:47;101109.72;;;11.08;100.00
64521;BME280;50896;46.714;17.322;2022-10-31T13:31:20;101102.25;;;11.12;100.00
64521;BME280;50896;46.714;17.322;2022-10-31T13:34:18;101104.91;;;11.12;100.00
64521;BME280;50896;46.714;17.322;2022-10-31T13:37:10;101101.03;;;11.06;100.00
64521;BME280;50896;46.714;17.322;2022-10-31T13:42:45;101113.72;;;11.22;100.00
64521;BME280;50896;46.714;17.322;2022-10-31T13:45:21;101106.31;;;11.16;100.00
64521;BME280;50896;46.714;17.322;2022-10-31T13:47:59;101106.19;;;11.18;100.00
64521;BME280;50896;46.714;17.322;2022-10-31T13:50:31;101100.97;;;11.16;100.00
64521;BME280;50896;46.714;17.322;2022-10-31T13:55:46;101100.22;;;11.06;100.00
64521;BME280;50896;46.714;17.322;2022-10-31T13:58:21;101097.28;;;10.99;100.00
64521;BME280;50896;46.714;17.322;2022-10-31T14:00:59;101095.66;;;10.98;100.00
64521;BME280;50896;46.714;17.322;2022-10-31T14:03:29;101084.00;;;10.99;100.00
64521;BME280;50896;46.714;17.322;2022-10-31T14:06:17;101103.47;;;11.00;100.00
64521;BME280;50896;46.714;17.322;2022-10-31T14:08:49;101086.28;;;10.94;100.00
64521;BME280;50896;46.714;17.322;2022-10-31T14:11:26;101086.56;;;10.91;100.00
64521;BME280;50896;46.714;17.322;2022-10-31T14:14:01;101092.72;;;10.91;100.00
64521;BME280;50896;46.714;17.322;2022-10-31T14:16:30;101098.06;;;10.91;100.00
64521;BME280;50896;46.714;17.322;2022-10-31T14:19:13;101086.56;;;10.91;100.00
64521;BME280;50896;46.714;17.322;2022-10-31T14:21:42;101092.72;;;10.91;100.00
64521;BME280;50896;46.714;17.322;2022-10-31T14:27:04;101089.66;;;10.86;100.00
64521;BME280;50896;46.714;17.322;2022-10-31T14:29:33;101091.34;;;10.87;100.00
64521;BME280;50896;46.714;17.322;2022-10-31T14:32:22;101089.66;;;10.86;100.00
64521;BME280;50896;46.714;17.322;2022-10-31T14:37:47;101076.53;;;10.85;100.00
64521;BME280;50896;46.714;17.322;2022-10-31T14:46:05;101093.59;;;10.82;100.00
64521;BME280;50896;46.714;17.322;2022-10-31T14:51:22;101081.28;;;10.81;100.00
64521;BME280;50896;46.714;17.322;2022-10-31T14:53:55;101081.84;;;10.85;100.00
64521;BME280;50896;46.714;17.322;2022-10-31T14:56:26;101087.47;;;10.82;100.00
64521;BME280;50896;46.714;17.322;2022-10-31T14:58:56;101085.06;;;10.78;100.00
64521;BME280;50896;46.714;17.322;2022-10-31T15:01:27;101085.47;;;10.84;100.00
64521;BME280;50896;46.714;17.322;2022-10-31T15:04:00;101074.69;;;10.85;100.00
64521;BME280;50896;46.714;17.322;2022-10-31T15:06:57;101075.28;;;10.79;100.00
64521;BME280;50896;46.714;17.322;2022-10-31T15:09:31;101081.13;;;10.83;100.00